createdAt,value
2017-07-17T05:31:25.451Z,45
2017-07-17T05:31:50.928Z,45
2017-07-17T05:32:16.399Z,40
2017-07-17T05:32:41.986Z,40
2017-07-17T05:33:07.411Z,40
2017-07-17T05:33:32.893Z,40
2017-07-17T05:33:58.413Z,40
2017-07-17T05:34:23.942Z,40
2017-07-17T05:34:49.376Z,50
2017-07-17T05:35:14.873Z,60
2017-07-17T05:35:40.367Z,65
2017-07-17T05:36:05.820Z,65
2017-07-17T05:36:31.274Z,60
2017-07-17T05:36:56.751Z,55
2017-07-17T05:37:22.205Z,50
2017-07-17T05:37:47.650Z,50
2017-07-17T05:38:13.115Z,55
2017-07-17T05:38:38.578Z,55
2017-07-17T05:39:04.060Z,55
2017-07-17T05:39:29.547Z,60
2017-07-17T05:39:55.023Z,60
2017-07-17T05:40:20.478Z,65
2017-07-17T05:40:45.967Z,65
2017-07-17T05:41:11.438Z,65
2017-07-17T05:41:36.895Z,65
2017-07-17T05:42:02.368Z,65
2017-07-17T05:42:27.836Z,60
2017-07-17T05:42:53.303Z,60
2017-07-17T05:43:18.743Z,65
2017-07-17T05:43:44.234Z,65
2017-07-17T05:44:09.726Z,65
2017-07-17T05:44:35.225Z,70
2017-07-17T05:45:00.674Z,70
2017-07-17T05:45:26.126Z,70
2017-07-17T05:45:51.661Z,75
2017-07-17T05:46:17.118Z,75
2017-07-17T05:46:42.567Z,75
2017-07-17T05:47:08.098Z,80
2017-07-17T05:47:33.596Z,85
2017-07-17T05:47:59.070Z,90
2017-07-17T05:48:24.533Z,95
2017-07-17T05:48:49.991Z,100
2017-07-17T05:49:15.431Z,105
2017-07-17T05:49:40.936Z,105
2017-07-17T05:50:06.404Z,95
2017-07-17T05:50:31.887Z,85
2017-07-17T05:50:57.375Z,105
2017-07-17T05:51:22.863Z,100
2017-07-17T05:51:48.346Z,80
2017-07-17T05:52:13.828Z,80
2017-07-17T05:52:39.283Z,80
2017-07-17T05:53:04.753Z,90
2017-07-17T05:53:30.232Z,115
2017-07-17T05:53:55.700Z,85
2017-07-17T05:54:21.195Z,90
2017-07-17T05:54:46.664Z,100
2017-07-17T05:55:12.171Z,90
2017-07-17T05:55:37.696Z,105
2017-07-17T05:56:03.152Z,110
2017-07-17T05:56:28.691Z,110
2017-07-17T05:56:54.155Z,105
2017-07-17T05:57:19.611Z,110
2017-07-17T05:57:45.090Z,125
2017-07-17T05:58:10.592Z,140
2017-07-17T05:58:36.039Z,150
2017-07-17T05:59:01.549Z,155
2017-07-17T05:59:27.015Z,140
2017-07-17T05:59:52.436Z,135
2017-07-17T06:00:17.927Z,130
2017-07-17T06:00:43.459Z,125
2017-07-17T06:01:08.942Z,110
2017-07-17T06:01:34.407Z,90
2017-07-17T06:01:59.831Z,80
2017-07-17T06:02:25.324Z,75
2017-07-17T06:02:50.816Z,75
2017-07-17T06:03:16.356Z,75
2017-07-17T06:03:41.812Z,80
2017-07-17T06:04:07.274Z,75
2017-07-17T06:04:32.747Z,70
2017-07-17T06:04:58.232Z,70
2017-07-17T06:05:23.710Z,65
2017-07-17T06:05:49.209Z,70
2017-07-17T06:06:14.651Z,75
2017-07-17T06:06:40.119Z,80
2017-07-17T06:07:05.604Z,80
2017-07-17T06:07:31.100Z,75
2017-07-17T06:07:56.592Z,70
2017-07-17T06:08:22.118Z,70
2017-07-17T06:08:47.558Z,70
2017-07-17T06:09:13.002Z,70
2017-07-17T06:09:38.469Z,75
2017-07-17T06:10:04.008Z,75
2017-07-17T06:10:29.496Z,85
2017-07-17T06:10:54.976Z,100
2017-07-17T06:11:20.445Z,110
2017-07-17T06:11:45.915Z,120
2017-07-17T06:12:11.384Z,105
2017-07-17T06:12:36.850Z,100
2017-07-17T06:13:02.319Z,95
2017-07-17T06:13:27.839Z,95
2017-07-17T06:13:53.276Z,90
2017-07-17T06:14:18.754Z,85
2017-07-17T06:14:44.200Z,85
2017-07-17T06:15:09.675Z,75
2017-07-17T06:15:35.140Z,75
2017-07-17T06:16:00.613Z,80
2017-07-17T06:16:26.096Z,85
2017-07-17T06:16:51.564Z,90
2017-07-17T06:17:17.006Z,100
2017-07-17T06:17:42.546Z,100
2017-07-17T06:18:08.008Z,105
2017-07-17T06:18:33.487Z,110
2017-07-17T06:18:58.939Z,120
2017-07-17T06:19:24.403Z,180
2017-07-17T06:19:49.925Z,140
2017-07-17T06:20:15.440Z,145
2017-07-17T06:20:40.914Z,145
2017-07-17T06:21:06.370Z,150
2017-07-17T06:21:31.869Z,155
2017-07-17T06:21:57.336Z,160
2017-07-17T06:22:22.836Z,165
2017-07-17T06:22:48.326Z,170
2017-07-17T06:23:13.798Z,165
2017-07-17T06:23:39.261Z,165
2017-07-17T06:24:04.730Z,165
2017-07-17T06:24:30.194Z,165
2017-07-17T06:24:55.715Z,165
2017-07-17T06:25:21.217Z,165
2017-07-17T06:25:46.690Z,175
2017-07-17T06:26:12.178Z,180
2017-07-17T06:26:37.637Z,180
2017-07-17T06:27:03.105Z,175
2017-07-17T06:27:28.554Z,175
2017-07-17T06:27:54.019Z,175
2017-07-17T06:28:19.495Z,180
2017-07-17T06:28:44.975Z,190
2017-07-17T06:29:10.450Z,205
2017-07-17T06:29:35.905Z,195
2017-07-17T06:30:01.352Z,190
2017-07-17T06:30:26.824Z,185
2017-07-17T06:30:52.310Z,180
2017-07-17T06:31:17.805Z,175
2017-07-17T06:31:43.254Z,180
2017-07-17T06:32:08.723Z,175
2017-07-17T06:32:34.214Z,175
2017-07-17T06:32:59.685Z,170
2017-07-17T06:33:25.163Z,170
2017-07-17T06:33:50.654Z,160
2017-07-17T06:34:16.107Z,160
2017-07-17T06:34:41.581Z,155
2017-07-17T06:35:07.043Z,155
2017-07-17T06:35:32.570Z,150
2017-07-17T06:35:58.040Z,140
2017-07-17T06:36:23.503Z,130
2017-07-17T06:36:48.964Z,125
2017-07-17T06:37:14.442Z,125
2017-07-17T06:37:39.918Z,125
2017-07-17T06:38:05.403Z,130
2017-07-17T06:38:30.868Z,130
2017-07-17T06:38:56.387Z,120
2017-07-17T06:39:21.860Z,125
2017-07-17T06:39:47.337Z,145
2017-07-17T06:40:12.790Z,160
2017-07-17T06:40:38.286Z,165
2017-07-17T06:41:03.748Z,145
2017-07-17T06:41:29.207Z,175
2017-07-17T06:41:54.679Z,160
2017-07-17T06:42:20.118Z,175
2017-07-17T06:42:45.581Z,175
2017-07-17T06:43:11.065Z,175
2017-07-17T06:43:36.541Z,180
2017-07-17T06:44:01.992Z,180
2017-07-17T06:44:27.459Z,190
2017-07-17T06:44:52.958Z,200
2017-07-17T06:45:18.433Z,210
2017-07-17T06:45:43.920Z,220
2017-07-17T06:46:09.393Z,235
2017-07-17T06:46:34.874Z,235
2017-07-17T06:47:00.346Z,220
2017-07-17T06:47:25.853Z,195
2017-07-17T06:47:51.344Z,170
2017-07-17T06:48:16.838Z,155
2017-07-17T06:48:42.294Z,150
2017-07-17T06:49:07.776Z,150
2017-07-17T06:49:33.238Z,150
2017-07-17T06:49:58.699Z,155
2017-07-17T06:50:24.176Z,160
2017-07-17T06:50:49.609Z,165
2017-07-17T06:51:15.080Z,165
2017-07-17T06:51:40.544Z,175
2017-07-17T06:52:06.013Z,175
2017-07-17T06:52:31.503Z,170
2017-07-17T06:52:56.966Z,170
2017-07-17T06:53:22.447Z,160
2017-07-17T06:53:47.895Z,150
2017-07-17T06:54:13.347Z,150
2017-07-17T06:54:38.821Z,150
2017-07-17T06:55:04.327Z,150
2017-07-17T06:55:29.774Z,150
2017-07-17T06:55:55.235Z,150
2017-07-17T06:56:20.687Z,150
2017-07-17T06:56:46.154Z,150
2017-07-17T06:57:11.596Z,155
2017-07-17T06:57:37.070Z,155
2017-07-17T06:58:02.551Z,155
2017-07-17T06:58:28.011Z,160
2017-07-17T06:58:53.478Z,95
2017-07-17T06:59:18.955Z,90
2017-07-17T06:59:44.425Z,85
2017-07-17T07:00:09.898Z,85
2017-07-17T07:00:35.402Z,125
2017-07-17T07:01:00.859Z,90
2017-07-17T07:01:26.352Z,85
2017-07-17T07:01:51.811Z,115
2017-07-17T07:02:17.297Z,125
2017-07-17T07:02:42.775Z,155
2017-07-17T07:03:08.280Z,110
2017-07-17T07:03:33.792Z,80
2017-07-17T07:03:59.298Z,80
2017-07-17T07:04:24.741Z,80
2017-07-17T07:04:50.210Z,85
2017-07-17T07:05:15.685Z,80
2017-07-17T07:05:41.159Z,80
2017-07-17T07:06:06.621Z,150
2017-07-17T07:06:32.102Z,145
2017-07-17T07:06:57.592Z,155
2017-07-17T07:07:23.075Z,155
2017-07-17T07:07:48.551Z,155
2017-07-17T07:08:14.005Z,155
2017-07-17T07:08:39.479Z,155
2017-07-17T07:09:04.945Z,155
2017-07-17T07:09:30.436Z,100
2017-07-17T07:09:55.931Z,150
2017-07-17T07:10:21.397Z,155
2017-07-17T07:10:46.883Z,150
2017-07-17T07:11:12.383Z,150
2017-07-17T07:11:37.839Z,150
2017-07-17T07:12:03.319Z,150
2017-07-17T07:12:28.812Z,150
2017-07-17T07:12:54.293Z,150
2017-07-17T07:13:19.771Z,150
2017-07-17T07:13:45.256Z,150
2017-07-17T07:14:10.724Z,150
2017-07-17T07:14:36.197Z,150
2017-07-17T07:15:01.642Z,145
2017-07-17T07:15:27.130Z,150
2017-07-17T07:15:52.631Z,150
2017-07-17T07:16:18.107Z,150
2017-07-17T07:16:43.585Z,150
2017-07-17T07:17:09.083Z,150
2017-07-17T07:17:34.536Z,150
2017-07-17T07:18:00.017Z,150
2017-07-17T07:18:25.516Z,150
2017-07-17T07:18:50.986Z,150
2017-07-17T07:19:16.442Z,150
2017-07-17T07:19:41.929Z,150
2017-07-17T07:20:07.386Z,160
2017-07-17T07:20:32.840Z,165
2017-07-17T07:20:58.311Z,180
2017-07-17T07:21:23.771Z,190
2017-07-17T07:21:49.235Z,195
2017-07-17T07:22:14.716Z,195
2017-07-17T07:22:40.165Z,195
2017-07-17T07:23:05.602Z,195
2017-07-17T07:23:31.080Z,190
2017-07-17T07:23:56.546Z,180
2017-07-17T07:24:22.015Z,170
2017-07-17T07:24:47.485Z,160
2017-07-17T07:25:12.977Z,155
2017-07-17T07:25:38.454Z,155
2017-07-17T07:26:03.923Z,155
2017-07-17T07:26:29.438Z,160
2017-07-17T07:26:54.917Z,135
2017-07-17T07:27:20.368Z,145
2017-07-17T07:27:45.854Z,150
2017-07-17T07:28:11.353Z,155
2017-07-17T07:28:36.834Z,150
2017-07-17T07:29:02.313Z,145
2017-07-17T07:29:27.811Z,150
2017-07-17T07:29:53.259Z,160
2017-07-17T07:30:18.734Z,170
2017-07-17T07:30:44.230Z,170
2017-07-17T07:31:09.671Z,135
2017-07-17T07:31:35.154Z,115
2017-07-17T07:32:00.624Z,120
2017-07-17T07:32:26.132Z,170
2017-07-17T07:32:51.603Z,180
2017-07-17T07:33:17.072Z,190
2017-07-17T07:33:42.564Z,195
2017-07-17T07:34:08.030Z,145
2017-07-17T07:34:33.525Z,110
2017-07-17T07:34:59.009Z,130
2017-07-17T07:35:24.523Z,155
2017-07-17T07:35:50.003Z,115
2017-07-17T07:36:15.484Z,95
2017-07-17T07:36:40.952Z,90
2017-07-17T07:37:06.423Z,105
2017-07-17T07:37:31.931Z,90
2017-07-17T07:37:57.355Z,95
2017-07-17T07:38:22.843Z,95
2017-07-17T07:38:48.313Z,150
2017-07-17T07:39:13.788Z,160
2017-07-17T07:39:39.238Z,160
2017-07-17T07:40:04.727Z,170
2017-07-17T07:40:30.221Z,175
2017-07-17T07:40:55.696Z,185
2017-07-17T07:41:21.158Z,190
2017-07-17T07:41:46.668Z,190
2017-07-17T07:42:12.159Z,190
2017-07-17T07:42:37.618Z,180
2017-07-17T07:43:03.069Z,175
2017-07-17T07:43:28.552Z,160
2017-07-17T07:43:54.043Z,155
2017-07-17T07:44:19.522Z,160
2017-07-17T07:44:44.972Z,155
2017-07-17T07:45:10.445Z,150
2017-07-17T07:45:35.922Z,185
2017-07-17T07:46:01.411Z,195
2017-07-17T07:46:26.896Z,195
2017-07-17T07:46:52.381Z,200
2017-07-17T07:47:17.864Z,195
2017-07-17T07:47:43.345Z,195
2017-07-17T07:48:08.827Z,195
2017-07-17T07:48:34.318Z,200
2017-07-17T07:48:59.787Z,190
2017-07-17T07:49:25.267Z,195
2017-07-17T07:49:50.742Z,185
2017-07-17T07:50:16.220Z,175
2017-07-17T07:50:41.700Z,165
2017-07-17T07:51:07.176Z,160
2017-07-17T07:51:32.651Z,155
2017-07-17T07:51:58.121Z,160
2017-07-17T07:52:23.629Z,160
2017-07-17T07:52:49.120Z,165
2017-07-17T07:53:14.589Z,150
2017-07-17T07:53:40.061Z,170
2017-07-17T07:54:05.545Z,180
2017-07-17T07:54:31.012Z,185
2017-07-17T07:54:56.487Z,155
2017-07-17T07:55:21.980Z,155
2017-07-17T07:55:47.451Z,170
2017-07-17T07:56:12.918Z,160
2017-07-17T07:56:38.401Z,170
2017-07-17T07:57:03.866Z,170
2017-07-17T07:57:29.352Z,120
2017-07-17T07:57:54.821Z,130
2017-07-17T07:58:20.299Z,160
2017-07-17T07:58:45.784Z,150
2017-07-17T07:59:11.254Z,120
2017-07-17T07:59:36.755Z,110
2017-07-17T08:00:02.208Z,105
2017-07-17T08:00:27.689Z,130
2017-07-17T08:00:53.166Z,155
2017-07-17T08:01:18.642Z,150
2017-07-17T08:01:44.101Z,160
2017-07-17T08:02:09.620Z,145
2017-07-17T08:02:35.091Z,130
2017-07-17T08:03:00.558Z,160
2017-07-17T08:03:26.064Z,165
2017-07-17T08:03:51.523Z,110
2017-07-17T08:04:17.009Z,125
2017-07-17T08:04:42.462Z,115
2017-07-17T08:05:07.929Z,130
2017-07-17T08:05:33.394Z,160
2017-07-17T08:05:58.849Z,155
2017-07-17T08:06:24.344Z,150
2017-07-17T08:06:49.819Z,120
2017-07-17T08:07:15.309Z,115
2017-07-17T08:07:40.796Z,120
2017-07-17T08:08:06.272Z,120
2017-07-17T08:08:31.768Z,125
2017-07-17T08:08:57.281Z,140
2017-07-17T08:09:22.762Z,145
2017-07-17T08:09:48.238Z,145
2017-07-17T08:10:13.725Z,145
2017-07-17T08:10:39.201Z,145
2017-07-17T08:11:04.671Z,145
2017-07-17T08:11:30.158Z,145
2017-07-17T08:11:55.617Z,140
2017-07-17T08:12:21.098Z,145
2017-07-17T08:12:46.568Z,145
2017-07-17T08:13:12.016Z,145
2017-07-17T08:13:37.538Z,105
2017-07-17T08:14:03.012Z,90
2017-07-17T08:14:28.470Z,130
2017-07-17T08:14:53.942Z,145
2017-07-17T08:15:19.429Z,120
2017-07-17T08:15:44.915Z,140
2017-07-17T08:16:10.396Z,140
2017-07-17T08:16:35.868Z,140
2017-07-17T08:17:01.368Z,145
2017-07-17T08:17:26.841Z,150
2017-07-17T08:17:52.348Z,145
2017-07-17T08:18:17.830Z,145
2017-07-17T08:18:43.325Z,145
2017-07-17T08:19:08.797Z,145
2017-07-17T08:19:34.282Z,150
2017-07-17T08:19:59.750Z,150
2017-07-17T08:20:25.261Z,130
2017-07-17T08:20:50.770Z,150
2017-07-17T08:21:16.291Z,150
2017-07-17T08:21:41.725Z,145
2017-07-17T08:22:07.177Z,145
2017-07-17T08:22:32.651Z,130
2017-07-17T08:22:58.157Z,125
2017-07-17T08:23:23.603Z,145
2017-07-17T08:23:49.090Z,135
2017-07-17T08:24:14.566Z,125
2017-07-17T08:24:40.029Z,140
2017-07-17T08:25:05.543Z,130
2017-07-17T08:25:30.993Z,130
2017-07-17T08:25:56.454Z,145
2017-07-17T08:26:21.949Z,190
2017-07-17T08:26:47.417Z,225
2017-07-17T08:27:12.880Z,215
2017-07-17T08:27:38.362Z,225
2017-07-17T08:28:03.839Z,225
2017-07-17T08:28:29.345Z,205
2017-07-17T08:28:54.800Z,190
2017-07-17T08:29:20.298Z,165
2017-07-17T08:29:45.764Z,155
2017-07-17T08:30:11.261Z,140
2017-07-17T08:30:36.764Z,125
2017-07-17T08:31:02.291Z,125
2017-07-17T08:31:27.744Z,130
2017-07-17T08:31:53.229Z,130
2017-07-17T08:32:18.723Z,120
2017-07-17T08:32:44.198Z,115
2017-07-17T08:33:09.673Z,115
2017-07-17T08:33:35.161Z,130
2017-07-17T08:34:00.650Z,130
2017-07-17T08:34:26.137Z,115
2017-07-17T08:34:51.608Z,115
2017-07-17T08:35:17.099Z,155
2017-07-17T08:35:42.558Z,140
2017-07-17T08:36:08.039Z,155
2017-07-17T08:36:33.514Z,115
2017-07-17T08:36:58.996Z,155
2017-07-17T08:37:24.490Z,145
2017-07-17T08:37:49.949Z,160
2017-07-17T08:38:15.424Z,160
2017-07-17T08:38:40.904Z,165
2017-07-17T08:39:06.377Z,165
2017-07-17T08:39:31.853Z,160
2017-07-17T08:39:57.328Z,170
2017-07-17T08:40:22.826Z,155
2017-07-17T08:40:48.318Z,155
2017-07-17T08:41:13.780Z,155
2017-07-17T08:41:39.264Z,150
2017-07-17T08:42:04.722Z,155
2017-07-17T08:42:30.210Z,150
2017-07-17T08:42:55.692Z,150
2017-07-17T08:43:21.166Z,140
2017-07-17T08:43:46.656Z,140
2017-07-17T08:44:12.146Z,145
2017-07-17T08:44:37.603Z,130
2017-07-17T08:45:03.096Z,135
2017-07-17T08:45:28.557Z,140
2017-07-17T08:45:54.038Z,155
2017-07-17T08:46:19.519Z,145
2017-07-17T08:46:45.033Z,165
2017-07-17T08:47:10.476Z,170
2017-07-17T08:47:35.958Z,175
2017-07-17T08:48:01.441Z,175
2017-07-17T08:48:26.908Z,165
2017-07-17T08:48:52.355Z,165
2017-07-17T08:49:17.822Z,135
2017-07-17T08:49:43.300Z,125
2017-07-17T08:50:08.798Z,110
2017-07-17T08:50:34.288Z,105
2017-07-17T08:50:59.805Z,140
2017-07-17T08:51:25.250Z,145
2017-07-17T08:51:50.703Z,145
2017-07-17T08:52:16.196Z,145
2017-07-17T08:52:41.671Z,145
2017-07-17T08:53:07.143Z,145
2017-07-17T08:53:32.643Z,145
2017-07-17T08:53:58.122Z,145
2017-07-17T08:54:23.588Z,150
2017-07-17T08:54:49.077Z,155
2017-07-17T08:55:14.557Z,160
2017-07-17T08:55:40.034Z,160
2017-07-17T08:56:05.498Z,160
2017-07-17T08:56:30.987Z,165
2017-07-17T08:56:56.467Z,165
2017-07-17T08:57:21.967Z,160
2017-07-17T08:57:47.419Z,160
2017-07-17T08:58:12.897Z,160
2017-07-17T08:58:38.381Z,165
2017-07-17T08:59:03.856Z,165
2017-07-17T08:59:29.354Z,160
2017-07-17T08:59:54.824Z,165
2017-07-17T09:00:20.281Z,170
2017-07-17T09:00:45.757Z,165
2017-07-17T09:01:11.242Z,155
2017-07-17T09:01:36.709Z,145
2017-07-17T09:02:02.188Z,135
2017-07-17T09:02:27.677Z,150
2017-07-17T09:02:53.154Z,150
2017-07-17T09:03:18.646Z,145
2017-07-17T09:03:44.131Z,150
2017-07-17T09:04:09.625Z,160
2017-07-17T09:04:35.092Z,175
2017-07-17T09:05:00.564Z,185
2017-07-17T09:05:26.053Z,200
2017-07-17T09:05:51.548Z,200
2017-07-17T09:06:17.033Z,215
2017-07-17T09:06:42.558Z,235
2017-07-17T09:07:08.004Z,255
2017-07-17T09:07:33.510Z,250
2017-07-17T09:07:58.995Z,230
2017-07-17T09:08:24.469Z,220
2017-07-17T09:08:49.947Z,175
2017-07-17T09:09:15.433Z,155
2017-07-17T09:09:40.918Z,140
2017-07-17T09:10:06.411Z,125
2017-07-17T09:10:31.875Z,115
2017-07-17T09:10:57.364Z,135
2017-07-17T09:11:22.836Z,110
2017-07-17T09:11:48.323Z,125
2017-07-17T09:12:13.840Z,155
2017-07-17T09:12:39.304Z,165
2017-07-17T09:13:04.788Z,160
2017-07-17T09:13:30.271Z,165
2017-07-17T09:13:55.711Z,150
2017-07-17T09:14:21.206Z,155
2017-07-17T09:14:46.667Z,165
2017-07-17T09:15:12.158Z,155
2017-07-17T09:15:37.630Z,150
2017-07-17T09:16:03.108Z,175
2017-07-17T09:16:28.593Z,170
2017-07-17T09:16:54.071Z,155
2017-07-17T09:17:19.525Z,170
2017-07-17T09:17:44.999Z,160
2017-07-17T09:18:10.495Z,160
2017-07-17T09:18:35.972Z,160
2017-07-17T09:19:01.427Z,155
2017-07-17T09:19:26.897Z,150
2017-07-17T09:19:52.381Z,120
2017-07-17T09:20:17.870Z,135
2017-07-17T09:20:43.344Z,115
2017-07-17T09:21:08.801Z,110
2017-07-17T09:21:34.287Z,105
2017-07-17T09:21:59.761Z,110
2017-07-17T09:22:25.209Z,140
2017-07-17T09:22:50.661Z,140
2017-07-17T09:23:16.150Z,140
2017-07-17T09:23:41.642Z,140
2017-07-17T09:24:07.100Z,140
2017-07-17T09:24:32.555Z,140
2017-07-17T09:24:58.029Z,135
2017-07-17T09:25:23.541Z,130
2017-07-17T09:25:49.012Z,130
2017-07-17T09:26:14.482Z,125
2017-07-17T09:26:39.978Z,125
2017-07-17T09:27:05.448Z,120
2017-07-17T09:27:30.934Z,120
2017-07-17T09:27:56.424Z,120
2017-07-17T09:28:21.915Z,120
2017-07-17T09:28:47.385Z,120
2017-07-17T09:29:12.861Z,125
2017-07-17T09:29:38.356Z,120
2017-07-17T09:30:03.847Z,120
2017-07-17T09:30:29.327Z,120
2017-07-17T09:30:54.792Z,120
2017-07-17T09:31:20.257Z,120
2017-07-17T09:31:45.761Z,125
2017-07-17T09:32:11.239Z,120
2017-07-17T09:32:36.725Z,120
2017-07-17T09:33:02.211Z,120
2017-07-17T09:33:27.681Z,125
2017-07-17T09:33:53.161Z,125
2017-07-17T09:34:18.612Z,125
2017-07-17T09:34:44.101Z,125
2017-07-17T09:35:09.592Z,125
2017-07-17T09:35:35.047Z,125
2017-07-17T09:36:00.526Z,125
2017-07-17T09:36:26.007Z,125
2017-07-17T09:36:51.486Z,125
2017-07-17T09:37:16.974Z,125
2017-07-17T09:37:42.445Z,125
2017-07-17T09:38:07.905Z,125
2017-07-17T09:38:33.370Z,125
2017-07-17T09:38:58.874Z,125
2017-07-17T09:39:24.344Z,125
2017-07-17T09:39:49.849Z,125
2017-07-17T09:40:15.342Z,125
2017-07-17T09:40:40.809Z,125
2017-07-17T09:41:06.303Z,130
2017-07-17T09:41:31.788Z,125
2017-07-17T09:41:57.284Z,125
2017-07-17T09:42:22.762Z,125
2017-07-17T09:42:48.235Z,125
2017-07-17T09:43:13.734Z,125
2017-07-17T09:43:39.218Z,125
2017-07-17T09:44:04.707Z,120
2017-07-17T09:44:30.172Z,120
2017-07-17T09:44:55.644Z,120
2017-07-17T09:45:21.136Z,120
2017-07-17T09:45:46.597Z,120
2017-07-17T09:46:12.075Z,120
2017-07-17T09:46:37.559Z,115
2017-07-17T09:47:03.048Z,120
2017-07-17T09:47:28.531Z,120
2017-07-17T09:47:54.001Z,120
2017-07-17T09:48:19.480Z,120
2017-07-17T09:48:44.958Z,125
2017-07-17T09:49:10.449Z,130
2017-07-17T09:49:35.954Z,135
2017-07-17T09:50:01.442Z,140
2017-07-17T09:50:26.934Z,145
2017-07-17T09:50:52.404Z,155
2017-07-17T09:51:17.898Z,160
2017-07-17T09:51:43.371Z,170
2017-07-17T09:52:08.865Z,175
2017-07-17T09:52:34.344Z,165
2017-07-17T09:52:59.813Z,150
2017-07-17T09:53:25.293Z,150
2017-07-17T09:53:50.792Z,140
2017-07-17T09:54:16.283Z,130
2017-07-17T09:54:41.764Z,125
2017-07-17T09:55:07.255Z,120
2017-07-17T09:55:32.747Z,120
2017-07-17T09:55:58.236Z,120
2017-07-17T09:56:23.724Z,120
2017-07-17T09:56:49.203Z,115
2017-07-17T09:57:14.679Z,115
2017-07-17T09:57:40.161Z,115
2017-07-17T09:58:05.650Z,115
2017-07-17T09:58:31.136Z,115
2017-07-17T09:58:56.624Z,115
2017-07-17T09:59:22.104Z,115
2017-07-17T09:59:47.568Z,115
2017-07-17T10:00:13.045Z,115
2017-07-17T10:00:38.510Z,115
2017-07-17T10:01:03.999Z,115
2017-07-17T10:01:29.489Z,120
2017-07-17T10:01:54.970Z,120
2017-07-17T10:02:20.436Z,115
2017-07-17T10:02:45.929Z,115
2017-07-17T10:03:11.413Z,115
2017-07-17T10:03:36.903Z,115
2017-07-17T10:04:02.369Z,120
2017-07-17T10:04:27.852Z,120
2017-07-17T10:04:53.345Z,125
2017-07-17T10:05:18.841Z,120
2017-07-17T10:05:44.335Z,115
2017-07-17T10:06:09.813Z,115
2017-07-17T10:06:35.303Z,115
2017-07-17T10:07:00.772Z,115
2017-07-17T10:07:26.264Z,115
2017-07-17T10:07:51.731Z,115
2017-07-17T10:08:17.206Z,115
2017-07-17T10:08:42.689Z,110
2017-07-17T10:09:08.157Z,110
2017-07-17T10:09:33.641Z,110
2017-07-17T10:09:59.122Z,110
2017-07-17T10:10:24.612Z,110
2017-07-17T10:10:50.102Z,90
2017-07-17T10:11:15.589Z,85
2017-07-17T10:11:41.063Z,95
2017-07-17T10:12:06.552Z,110
2017-07-17T10:12:32.041Z,110
2017-07-17T10:12:57.510Z,110
2017-07-17T10:13:23.003Z,110
2017-07-17T10:13:48.465Z,110
2017-07-17T10:14:13.930Z,110
2017-07-17T10:14:39.402Z,110
2017-07-17T10:15:04.874Z,110
2017-07-17T10:15:30.350Z,110
2017-07-17T10:15:55.838Z,110
2017-07-17T10:16:21.321Z,105
2017-07-17T10:16:46.778Z,105
2017-07-17T10:17:12.243Z,105
2017-07-17T10:17:37.738Z,105
2017-07-17T10:18:03.217Z,105
2017-07-17T10:18:28.694Z,105
2017-07-17T10:18:54.164Z,105
2017-07-17T10:19:19.655Z,105
2017-07-17T10:19:45.148Z,105
2017-07-17T10:20:10.617Z,105
2017-07-17T10:20:36.074Z,105
2017-07-17T10:21:01.563Z,105
2017-07-17T10:21:27.010Z,105
2017-07-17T10:21:52.508Z,105
2017-07-17T10:22:17.999Z,105
2017-07-17T10:22:43.484Z,105
2017-07-17T10:23:08.979Z,105
2017-07-17T10:23:34.410Z,105
2017-07-17T10:23:59.924Z,105
2017-07-17T10:24:25.383Z,105
2017-07-17T10:24:50.862Z,105
2017-07-17T10:25:16.314Z,105
2017-07-17T10:25:41.792Z,105
2017-07-17T10:26:07.276Z,105
2017-07-17T10:26:32.754Z,105
2017-07-17T10:26:58.238Z,105
2017-07-17T10:27:23.718Z,105
2017-07-17T10:27:49.214Z,105
2017-07-17T10:28:14.679Z,105
2017-07-17T10:28:40.193Z,105
2017-07-17T10:29:05.647Z,105
2017-07-17T10:29:31.142Z,105
2017-07-17T10:29:56.593Z,105
2017-07-17T10:30:22.081Z,105
2017-07-17T10:30:47.539Z,105
2017-07-17T10:31:13.015Z,100
2017-07-17T10:31:38.503Z,100
2017-07-17T10:32:03.975Z,100
2017-07-17T10:32:29.448Z,100
2017-07-17T10:32:54.921Z,100
2017-07-17T10:33:20.414Z,100
2017-07-17T10:33:45.903Z,100
2017-07-17T10:34:11.395Z,105
2017-07-17T10:34:36.873Z,105
2017-07-17T10:35:02.379Z,105
2017-07-17T10:35:27.853Z,105
2017-07-17T10:35:53.329Z,105
2017-07-17T10:36:18.808Z,105
2017-07-17T10:36:44.308Z,105
2017-07-17T10:37:09.761Z,105
2017-07-17T10:37:35.252Z,105
2017-07-17T10:38:00.733Z,105
2017-07-17T10:38:26.206Z,105
2017-07-17T10:38:51.688Z,105
2017-07-17T10:39:17.182Z,105
2017-07-17T10:39:42.679Z,105
2017-07-17T10:40:08.158Z,105
2017-07-17T10:40:33.639Z,105
2017-07-17T10:40:59.113Z,105
2017-07-17T10:41:24.594Z,105
2017-07-17T10:41:50.088Z,105
2017-07-17T10:42:15.565Z,105
2017-07-17T10:42:41.048Z,105
2017-07-17T10:43:06.519Z,105
2017-07-17T10:43:31.997Z,105
2017-07-17T10:43:57.471Z,105
2017-07-17T10:44:22.948Z,105
2017-07-17T10:44:48.459Z,105
2017-07-17T10:45:13.921Z,105
2017-07-17T10:45:39.404Z,110
2017-07-17T10:46:04.890Z,115
2017-07-17T10:46:30.369Z,120
2017-07-17T10:46:55.852Z,125
2017-07-17T10:47:21.336Z,125
2017-07-17T10:47:46.817Z,125
2017-07-17T10:48:12.306Z,125
2017-07-17T10:48:37.769Z,130
2017-07-17T10:49:03.260Z,130
2017-07-17T10:49:28.741Z,130
2017-07-17T10:49:54.204Z,135
2017-07-17T10:50:19.729Z,140
2017-07-17T10:50:45.207Z,145
2017-07-17T10:51:10.667Z,145
2017-07-17T10:51:36.149Z,150
2017-07-17T10:52:01.623Z,160
2017-07-17T10:52:27.103Z,165
2017-07-17T10:52:52.597Z,175
2017-07-17T10:53:18.076Z,175
2017-07-17T10:53:43.559Z,185
2017-07-17T10:54:09.049Z,190
2017-07-17T10:54:34.543Z,200
2017-07-17T10:55:00.005Z,200
2017-07-17T10:55:25.469Z,190
2017-07-17T10:55:50.942Z,185
2017-07-17T10:56:16.451Z,165
2017-07-17T10:56:41.917Z,140
2017-07-17T10:57:07.355Z,125
2017-07-17T10:57:32.831Z,115
2017-07-17T10:57:58.325Z,110
2017-07-17T10:58:23.796Z,105
2017-07-17T10:58:49.290Z,100
2017-07-17T10:59:14.781Z,100
2017-07-17T10:59:40.256Z,100
2017-07-17T11:00:05.719Z,100
2017-07-17T11:00:31.204Z,100
2017-07-17T11:00:56.673Z,105
2017-07-17T11:01:22.180Z,110
2017-07-17T11:01:47.672Z,110
2017-07-17T11:02:13.163Z,115
2017-07-17T11:02:38.641Z,120
2017-07-17T11:03:04.157Z,120
2017-07-17T11:03:29.639Z,120
2017-07-17T11:03:55.117Z,125
2017-07-17T11:04:20.597Z,130
2017-07-17T11:04:46.045Z,125
2017-07-17T11:05:11.535Z,120
2017-07-17T11:05:36.992Z,115
2017-07-17T11:06:02.493Z,115
2017-07-17T11:06:28.029Z,120
2017-07-17T11:06:53.477Z,125
2017-07-17T11:07:18.984Z,125
2017-07-17T11:07:44.459Z,135
2017-07-17T11:08:09.948Z,135
2017-07-17T11:08:35.438Z,130
2017-07-17T11:09:00.942Z,125
2017-07-17T11:09:26.397Z,120
2017-07-17T11:09:51.868Z,120
2017-07-17T11:10:17.343Z,120
2017-07-17T11:10:42.852Z,115
2017-07-17T11:11:08.306Z,120
2017-07-17T11:12:31.761Z,110
2017-07-17T11:12:57.259Z,110
2017-07-17T11:13:22.725Z,105
2017-07-17T11:13:48.206Z,90
2017-07-17T11:14:13.668Z,100
2017-07-17T11:14:39.181Z,95
2017-07-17T11:15:04.649Z,100
2017-07-17T11:15:30.145Z,100
2017-07-17T11:15:55.617Z,95
2017-07-17T11:16:21.080Z,100
2017-07-17T11:16:46.556Z,95
2017-07-17T11:17:12.061Z,95
2017-07-17T11:17:37.532Z,95
2017-07-17T11:18:03.024Z,95
2017-07-17T11:18:28.496Z,95
2017-07-17T11:18:53.993Z,95
2017-07-17T11:19:19.474Z,95
2017-07-17T11:19:44.946Z,95
2017-07-17T11:20:10.420Z,95
2017-07-17T11:20:35.896Z,90
2017-07-17T11:21:01.351Z,90
2017-07-17T11:21:26.836Z,90
2017-07-17T11:21:52.316Z,90
2017-07-17T11:22:17.817Z,90
2017-07-17T11:22:43.280Z,90
2017-07-17T11:23:08.748Z,90
2017-07-17T11:23:34.222Z,90
2017-07-17T11:23:59.689Z,90
2017-07-17T11:24:25.167Z,90
2017-07-17T11:24:50.643Z,90